< < Back
Terminal Aerodrome Forecast


Current Version              Previous Versions:   1  2  3  4  5  6  7  8  9  

Terminal Aerodrome Forecast

208
FTUS42 KTAE 142300
TAFTLH
TAF
KTLH 142320Z 1500/1524 18008KT P6SM VCTS SCT040CB BKN250
     FM150200 00000KT P6SM SCT250
     FM151400 18007KT P6SM VCTS SCT040CB BKN250=

Latest METAR

017
SAUS80 KWBC 150400 RRA
MTRTLH
METAR KTLH 150353Z AUTO 00000KT 10SM CLR 27/23 A3012 RMK AO2 SLP200
T02670233 $


USA.gov is the U.S. government's official web portal to all federal, state and local government web resources and services.